sensor_id;sensor_type;location;lat;lon;timestamp;temperature;humidity
51557;DHT22;38766;53.194;5.532;2022-08-11T00:00:42;19.40;99.90
51557;DHT22;38766;53.194;5.532;2022-08-11T00:03:11;19.30;99.90
51557;DHT22;38766;53.194;5.532;2022-08-11T00:05:45;19.30;99.90
51557;DHT22;38766;53.194;5.532;2022-08-11T00:08:19;19.30;99.90
51557;DHT22;38766;53.194;5.532;2022-08-11T00:10:54;19.30;99.90
51557;DHT22;38766;53.194;5.532;2022-08-11T00:13:21;19.20;99.90
51557;DHT22;38766;53.194;5.532;2022-08-11T00:15:48;19.20;99.90
51557;DHT22;38766;53.194;5.532;2022-08-11T00:18:14;19.20;99.90
51557;DHT22;38766;53.194;5.532;2022-08-11T00:20:43;19.20;99.90
51557;DHT22;38766;53.194;5.532;2022-08-11T00:23:11;19.20;99.90
51557;DHT22;38766;53.194;5.532;2022-08-11T00:25:43;19.20;99.90
51557;DHT22;38766;53.194;5.532;2022-08-11T00:30:50;19.20;99.90
51557;DHT22;38766;53.194;5.532;2022-08-11T00:33:16;19.20;99.90
51557;DHT22;38766;53.194;5.532;2022-08-11T00:35:44;19.10;99.90
51557;DHT22;38766;53.194;5.532;2022-08-11T00:38:10;19.10;99.90
51557;DHT22;38766;53.194;5.532;2022-08-11T00:40:50;19.10;99.90
51557;DHT22;38766;53.194;5.532;2022-08-11T00:46:26;19.10;99.90
51557;DHT22;38766;53.194;5.532;2022-08-11T00:49:22;19.10;99.90
51557;DHT22;38766;53.194;5.532;2022-08-11T01:03:10;19.00;99.90
51557;DHT22;38766;53.194;5.532;2022-08-11T01:08:25;18.90;99.90
51557;DHT22;38766;53.194;5.532;2022-08-11T01:11:01;18.90;99.90
51557;DHT22;38766;53.194;5.532;2022-08-11T01:39:11;18.70;99.90
51557;DHT22;38766;53.194;5.532;2022-08-11T01:41:41;18.70;99.90
51557;DHT22;38766;53.194;5.532;2022-08-11T01:50:30;18.60;99.90
51557;DHT22;38766;53.194;5.532;2022-08-11T01:55:53;18.60;99.90
51557;DHT22;38766;53.194;5.532;2022-08-11T02:01:26;18.50;99.90
51557;DHT22;38766;53.194;5.532;2022-08-11T02:04:30;18.60;99.90
51557;DHT22;38766;53.194;5.532;2022-08-11T02:15:19;18.50;99.90
51557;DHT22;38766;53.194;5.532;2022-08-11T02:17:52;18.50;99.90
51557;DHT22;38766;53.194;5.532;2022-08-11T02:20:49;18.40;99.90
51557;DHT22;38766;53.194;5.532;2022-08-11T02:23:54;18.40;99.90
51557;DHT22;38766;53.194;5.532;2022-08-11T02:26:22;18.40;99.90
51557;DHT22;38766;53.194;5.532;2022-08-11T02:28:58;18.40;99.90
51557;DHT22;38766;53.194;5.532;2022-08-11T02:31:37;18.40;99.90
51557;DHT22;38766;53.194;5.532;2022-08-11T02:37:47;18.30;99.90
51557;DHT22;38766;53.194;5.532;2022-08-11T02:46:15;18.30;99.90
51557;DHT22;38766;53.194;5.532;2022-08-11T02:52:46;18.20;99.90
51557;DHT22;38766;53.194;5.532;2022-08-11T02:57:56;18.20;99.90
51557;DHT22;38766;53.194;5.532;2022-08-11T03:00:25;18.10;99.90
51557;DHT22;38766;53.194;5.532;2022-08-11T03:03:12;18.20;99.90
51557;DHT22;38766;53.194;5.532;2022-08-11T03:06:03;18.10;99.90
51557;DHT22;38766;53.194;5.532;2022-08-11T03:08:43;18.10;99.90
51557;DHT22;38766;53.194;5.532;2022-08-11T03:12:17;18.10;99.90
51557;DHT22;38766;53.194;5.532;2022-08-11T03:14:54;18.10;99.90
51557;DHT22;38766;53.194;5.532;2022-08-11T03:20:42;18.10;99.90
51557;DHT22;38766;53.194;5.532;2022-08-11T03:23:29;18.10;99.90
51557;DHT22;38766;53.194;5.532;2022-08-11T03:26:08;18.00;99.90
51557;DHT22;38766;53.194;5.532;2022-08-11T03:28:54;18.00;99.90
51557;DHT22;38766;53.194;5.532;2022-08-11T03:31:31;18.00;99.90
51557;DHT22;38766;53.194;5.532;2022-08-11T03:34:05;18.00;99.90
51557;DHT22;38766;53.194;5.532;2022-08-11T03:37:13;18.00;99.90
51557;DHT22;38766;53.194;5.532;2022-08-11T03:46:09;18.00;99.90
51557;DHT22;38766;53.194;5.532;2022-08-11T03:51:34;17.90;99.90
51557;DHT22;38766;53.194;5.532;2022-08-11T03:54:45;17.90;99.90
51557;DHT22;38766;53.194;5.532;2022-08-11T03:57:41;17.90;99.90
51557;DHT22;38766;53.194;5.532;2022-08-11T04:06:36;17.90;99.90
51557;DHT22;38766;53.194;5.532;2022-08-11T04:11:54;17.80;99.90
51557;DHT22;38766;53.194;5.532;2022-08-11T04:23:13;17.80;99.90
51557;DHT22;38766;53.194;5.532;2022-08-11T04:31:38;17.80;99.90
51557;DHT22;38766;53.194;5.532;2022-08-11T04:37:16;17.80;99.90
51557;DHT22;38766;53.194;5.532;2022-08-11T04:55:12;17.70;99.90
51557;DHT22;38766;53.194;5.532;2022-08-11T04:58:07;17.70;99.90
51557;DHT22;38766;53.194;5.532;2022-08-11T05:10:02;17.70;99.90
51557;DHT22;38766;53.194;5.532;2022-08-11T05:15:17;17.70;99.90
51557;DHT22;38766;53.194;5.532;2022-08-11T05:18:13;17.70;99.90
51557;DHT22;38766;53.194;5.532;2022-08-11T05:21:04;17.80;99.90
51557;DHT22;38766;53.194;5.532;2022-08-11T05:23:56;17.80;99.90
51557;DHT22;38766;53.194;5.532;2022-08-11T05:26:45;17.90;99.90
51557;DHT22;38766;53.194;5.532;2022-08-11T05:29:44;17.90;99.90
51557;DHT22;38766;53.194;5.532;2022-08-11T05:32:41;17.90;99.90
51557;DHT22;38766;53.194;5.532;2022-08-11T05:35:37;17.90;99.90
51557;DHT22;38766;53.194;5.532;2022-08-11T05:38:15;18.00;99.90
51557;DHT22;38766;53.194;5.532;2022-08-11T05:41:00;18.00;99.90
51557;DHT22;38766;53.194;5.532;2022-08-11T05:43:45;18.00;99.90
51557;DHT22;38766;53.194;5.532;2022-08-11T05:46:40;18.00;99.90
51557;DHT22;38766;53.194;5.532;2022-08-11T05:49:31;18.10;99.90
51557;DHT22;38766;53.194;5.532;2022-08-11T05:52:17;18.10;99.90
51557;DHT22;38766;53.194;5.532;2022-08-11T05:55:05;18.20;99.90
51557;DHT22;38766;53.194;5.532;2022-08-11T05:57:54;18.20;99.90
51557;DHT22;38766;53.194;5.532;2022-08-11T06:00:21;18.20;99.90
51557;DHT22;38766;53.194;5.532;2022-08-11T06:02:51;18.30;99.90
51557;DHT22;38766;53.194;5.532;2022-08-11T06:05:19;18.30;99.90
51557;DHT22;38766;53.194;5.532;2022-08-11T06:07:47;18.30;99.90
51557;DHT22;38766;53.194;5.532;2022-08-11T06:10:13;18.40;99.90
51557;DHT22;38766;53.194;5.532;2022-08-11T06:12:51;18.30;99.90
51557;DHT22;38766;53.194;5.532;2022-08-11T06:15:18;18.50;99.90
51557;DHT22;38766;53.194;5.532;2022-08-11T06:17:45;18.50;99.90
51557;DHT22;38766;53.194;5.532;2022-08-11T06:20:13;18.60;99.90
51557;DHT22;38766;53.194;5.532;2022-08-11T06:22:42;18.60;99.90
51557;DHT22;38766;53.194;5.532;2022-08-11T06:25:10;18.70;99.90
51557;DHT22;38766;53.194;5.532;2022-08-11T06:27:38;18.80;99.90
51557;DHT22;38766;53.194;5.532;2022-08-11T06:30:07;19.00;99.90
51557;DHT22;38766;53.194;5.532;2022-08-11T06:32:42;19.20;99.90
51557;DHT22;38766;53.194;5.532;2022-08-11T06:35:11;19.60;99.90
51557;DHT22;38766;53.194;5.532;2022-08-11T06:37:59;19.80;99.90
51557;DHT22;38766;53.194;5.532;2022-08-11T06:40:37;20.20;99.90
51557;DHT22;38766;53.194;5.532;2022-08-11T06:43:19;20.50;99.90
51557;DHT22;38766;53.194;5.532;2022-08-11T06:46:00;20.80;99.90
51557;DHT22;38766;53.194;5.532;2022-08-11T06:48:29;21.10;99.90
51557;DHT22;38766;53.194;5.532;2022-08-11T06:50:59;21.50;99.90
51557;DHT22;38766;53.194;5.532;2022-08-11T06:53:41;21.70;99.90
51557;DHT22;38766;53.194;5.532;2022-08-11T06:56:09;21.90;99.90
51557;DHT22;38766;53.194;5.532;2022-08-11T06:58:53;22.20;99.90
51557;DHT22;38766;53.194;5.532;2022-08-11T07:04:18;22.70;99.90
51557;DHT22;38766;53.194;5.532;2022-08-11T07:10:17;23.10;99.90
51557;DHT22;38766;53.194;5.532;2022-08-11T07:13:04;23.40;99.90
51557;DHT22;38766;53.194;5.532;2022-08-11T07:15:50;23.60;99.90
51557;DHT22;38766;53.194;5.532;2022-08-11T07:18:29;23.80;99.90
51557;DHT22;38766;53.194;5.532;2022-08-11T07:21:28;24.10;99.90
51557;DHT22;38766;53.194;5.532;2022-08-11T07:24:20;24.20;99.90
51557;DHT22;38766;53.194;5.532;2022-08-11T07:27:17;24.40;99.90
51557;DHT22;38766;53.194;5.532;2022-08-11T07:30:06;24.50;99.90
51557;DHT22;38766;53.194;5.532;2022-08-11T07:32:46;24.70;99.90
51557;DHT22;38766;53.194;5.532;2022-08-11T07:35:20;24.70;99.90
51557;DHT22;38766;53.194;5.532;2022-08-11T07:37:49;24.70;99.90
51557;DHT22;38766;53.194;5.532;2022-08-11T07:40:22;24.60;99.90
51557;DHT22;38766;53.194;5.532;2022-08-11T07:42:49;24.50;99.90
51557;DHT22;38766;53.194;5.532;2022-08-11T07:45:15;24.40;99.90
51557;DHT22;38766;53.194;5.532;2022-08-11T07:48:00;24.30;99.90
51557;DHT22;38766;53.194;5.532;2022-08-11T07:50:44;24.30;99.90
51557;DHT22;38766;53.194;5.532;2022-08-11T07:53:30;24.30;99.90
51557;DHT22;38766;53.194;5.532;2022-08-11T07:55:58;24.30;99.90
51557;DHT22;38766;53.194;5.532;2022-08-11T07:58:25;24.30;99.90
51557;DHT22;38766;53.194;5.532;2022-08-11T08:01:11;24.30;99.90
51557;DHT22;38766;53.194;5.532;2022-08-11T08:03:58;24.30;99.90
51557;DHT22;38766;53.194;5.532;2022-08-11T08:06:43;24.30;99.90
51557;DHT22;38766;53.194;5.532;2022-08-11T08:09:32;24.30;99.90
51557;DHT22;38766;53.194;5.532;2022-08-11T08:12:20;24.40;99.90
51557;DHT22;38766;53.194;5.532;2022-08-11T08:15:07;24.40;99.90
51557;DHT22;38766;53.194;5.532;2022-08-11T08:17:51;24.40;99.90
51557;DHT22;38766;53.194;5.532;2022-08-11T08:20:24;24.50;99.90
51557;DHT22;38766;53.194;5.532;2022-08-11T08:22:53;24.50;99.90
51557;DHT22;38766;53.194;5.532;2022-08-11T08:25:23;24.60;99.90
51557;DHT22;38766;53.194;5.532;2022-08-11T08:27:50;24.70;99.90
51557;DHT22;38766;53.194;5.532;2022-08-11T08:30:16;24.80;99.90
51557;DHT22;38766;53.194;5.532;2022-08-11T08:33:01;24.80;99.90
51557;DHT22;38766;53.194;5.532;2022-08-11T08:35:28;24.80;99.90
51557;DHT22;38766;53.194;5.532;2022-08-11T08:37:57;24.80;99.90
51557;DHT22;38766;53.194;5.532;2022-08-11T08:40:25;24.80;99.90
51557;DHT22;38766;53.194;5.532;2022-08-11T08:43:12;24.80;99.90
51557;DHT22;38766;53.194;5.532;2022-08-11T08:45:40;24.90;99.90
51557;DHT22;38766;53.194;5.532;2022-08-11T08:48:13;24.90;99.90
51557;DHT22;38766;53.194;5.532;2022-08-11T08:51:00;24.90;99.90
51557;DHT22;38766;53.194;5.532;2022-08-11T08:53:53;24.90;99.90
51557;DHT22;38766;53.194;5.532;2022-08-11T08:56:25;25.00;99.90
51557;DHT22;38766;53.194;5.532;2022-08-11T08:58:52;25.10;99.90
51557;DHT22;38766;53.194;5.532;2022-08-11T09:01:20;25.10;99.90
51557;DHT22;38766;53.194;5.532;2022-08-11T09:03:47;25.20;99.90
51557;DHT22;38766;53.194;5.532;2022-08-11T09:06:14;25.20;99.90
51557;DHT22;38766;53.194;5.532;2022-08-11T09:08:43;25.30;99.90
51557;DHT22;38766;53.194;5.532;2022-08-11T09:11:09;25.30;99.90
51557;DHT22;38766;53.194;5.532;2022-08-11T09:13:54;25.40;99.90
51557;DHT22;38766;53.194;5.532;2022-08-11T09:16:21;25.50;99.90
51557;DHT22;38766;53.194;5.532;2022-08-11T09:18:48;25.60;99.80
51557;DHT22;38766;53.194;5.532;2022-08-11T09:21:15;25.70;99.30
51557;DHT22;38766;53.194;5.532;2022-08-11T09:23:42;25.80;99.20
51557;DHT22;38766;53.194;5.532;2022-08-11T09:26:35;25.90;99.00
51557;DHT22;38766;53.194;5.532;2022-08-11T09:29:20;26.00;98.50
51557;DHT22;38766;53.194;5.532;2022-08-11T09:31:46;26.10;98.40
51557;DHT22;38766;53.194;5.532;2022-08-11T09:34:13;26.20;98.00
51557;DHT22;38766;53.194;5.532;2022-08-11T09:36:40;26.30;97.50
51557;DHT22;38766;53.194;5.532;2022-08-11T09:39:29;26.40;97.20
51557;DHT22;38766;53.194;5.532;2022-08-11T09:42:14;26.50;96.70
51557;DHT22;38766;53.194;5.532;2022-08-11T09:44:41;26.60;96.30
51557;DHT22;38766;53.194;5.532;2022-08-11T09:47:24;26.70;95.80
51557;DHT22;38766;53.194;5.532;2022-08-11T09:50:01;26.90;94.60
51557;DHT22;38766;53.194;5.532;2022-08-11T09:52:29;27.00;94.20
51557;DHT22;38766;53.194;5.532;2022-08-11T09:54:57;27.10;93.40
51557;DHT22;38766;53.194;5.532;2022-08-11T09:57:24;27.30;93.00
51557;DHT22;38766;53.194;5.532;2022-08-11T10:00:10;27.40;92.40
51557;DHT22;38766;53.194;5.532;2022-08-11T10:02:47;27.50;92.20
51557;DHT22;38766;53.194;5.532;2022-08-11T10:05:18;27.60;91.70
51557;DHT22;38766;53.194;5.532;2022-08-11T10:08:04;27.70;90.70
51557;DHT22;38766;53.194;5.532;2022-08-11T10:10:35;27.80;90.20
51557;DHT22;38766;53.194;5.532;2022-08-11T10:13:04;27.80;89.50
51557;DHT22;38766;53.194;5.532;2022-08-11T10:15:31;27.90;88.60
51557;DHT22;38766;53.194;5.532;2022-08-11T10:18:07;28.10;87.70
51557;DHT22;38766;53.194;5.532;2022-08-11T10:20:56;28.20;86.80
51557;DHT22;38766;53.194;5.532;2022-08-11T10:23:24;28.30;85.60
51557;DHT22;38766;53.194;5.532;2022-08-11T10:26:09;28.30;85.60
51557;DHT22;38766;53.194;5.532;2022-08-11T10:28:55;28.50;84.50
51557;DHT22;38766;53.194;5.532;2022-08-11T10:31:21;28.60;84.20
51557;DHT22;38766;53.194;5.532;2022-08-11T10:34:07;28.60;82.90
51557;DHT22;38766;53.194;5.532;2022-08-11T10:36:36;28.70;82.60
51557;DHT22;38766;53.194;5.532;2022-08-11T10:39:07;28.80;80.70
51557;DHT22;38766;53.194;5.532;2022-08-11T10:41:34;28.90;78.90
51557;DHT22;38766;53.194;5.532;2022-08-11T10:44:19;28.90;77.40
51557;DHT22;38766;53.194;5.532;2022-08-11T10:46:47;29.00;76.30
51557;DHT22;38766;53.194;5.532;2022-08-11T10:49:31;29.00;75.50
51557;DHT22;38766;53.194;5.532;2022-08-11T10:51:57;29.20;74.10
51557;DHT22;38766;53.194;5.532;2022-08-11T10:54:42;29.30;72.50
51557;DHT22;38766;53.194;5.532;2022-08-11T10:57:29;29.30;72.30
51557;DHT22;38766;53.194;5.532;2022-08-11T11:00:14;29.40;71.00
51557;DHT22;38766;53.194;5.532;2022-08-11T11:02:41;29.40;70.40
51557;DHT22;38766;53.194;5.532;2022-08-11T11:07:49;29.50;69.90
51557;DHT22;38766;53.194;5.532;2022-08-11T11:10:16;29.60;70.20
51557;DHT22;38766;53.194;5.532;2022-08-11T11:12:48;29.70;70.00
51557;DHT22;38766;53.194;5.532;2022-08-11T11:15:34;29.70;69.60
51557;DHT22;38766;53.194;5.532;2022-08-11T11:18:31;29.80;69.70
51557;DHT22;38766;53.194;5.532;2022-08-11T11:21:06;29.90;68.60
51557;DHT22;38766;53.194;5.532;2022-08-11T11:32:23;30.00;68.20
51557;DHT22;38766;53.194;5.532;2022-08-11T11:37:24;30.10;67.30
51557;DHT22;38766;53.194;5.532;2022-08-11T11:39:52;30.10;67.00
51557;DHT22;38766;53.194;5.532;2022-08-11T11:42:20;30.20;66.30
51557;DHT22;38766;53.194;5.532;2022-08-11T11:44:47;30.20;65.70
51557;DHT22;38766;53.194;5.532;2022-08-11T11:47:13;30.30;62.90
51557;DHT22;38766;53.194;5.532;2022-08-11T11:49:41;30.30;61.30
51557;DHT22;38766;53.194;5.532;2022-08-11T11:52:13;30.30;61.30
51557;DHT22;38766;53.194;5.532;2022-08-11T11:54:39;30.40;60.70
51557;DHT22;38766;53.194;5.532;2022-08-11T11:57:06;30.40;61.40
51557;DHT22;38766;53.194;5.532;2022-08-11T11:59:52;30.40;60.60
51557;DHT22;38766;53.194;5.532;2022-08-11T12:02:39;30.50;61.40
51557;DHT22;38766;53.194;5.532;2022-08-11T12:05:06;30.50;61.00
51557;DHT22;38766;53.194;5.532;2022-08-11T12:07:33;30.50;59.50
51557;DHT22;38766;53.194;5.532;2022-08-11T12:10:18;30.70;59.20
51557;DHT22;38766;53.194;5.532;2022-08-11T12:12:45;30.70;58.70
51557;DHT22;38766;53.194;5.532;2022-08-11T12:15:30;30.80;58.50
51557;DHT22;38766;53.194;5.532;2022-08-11T12:17:56;30.90;58.60
51557;DHT22;38766;53.194;5.532;2022-08-11T12:20:23;31.00;58.50
51557;DHT22;38766;53.194;5.532;2022-08-11T12:22:49;31.00;58.30
51557;DHT22;38766;53.194;5.532;2022-08-11T12:25:33;31.10;57.90
51557;DHT22;38766;53.194;5.532;2022-08-11T12:28:18;31.10;58.70
51557;DHT22;38766;53.194;5.532;2022-08-11T12:30:48;31.20;58.80
51557;DHT22;38766;53.194;5.532;2022-08-11T12:33:14;31.20;58.90
51557;DHT22;38766;53.194;5.532;2022-08-11T12:35:41;31.20;59.20
51557;DHT22;38766;53.194;5.532;2022-08-11T12:38:08;31.20;59.20
51557;DHT22;38766;53.194;5.532;2022-08-11T12:40:35;31.20;60.70
51557;DHT22;38766;53.194;5.532;2022-08-11T12:43:21;31.20;61.30
51557;DHT22;38766;53.194;5.532;2022-08-11T12:46:10;31.20;62.70
51557;DHT22;38766;53.194;5.532;2022-08-11T12:48:44;31.20;64.70
51557;DHT22;38766;53.194;5.532;2022-08-11T12:51:33;31.30;65.90
51557;DHT22;38766;53.194;5.532;2022-08-11T12:57:03;31.20;65.60
51557;DHT22;38766;53.194;5.532;2022-08-11T12:59:49;31.20;65.60
51557;DHT22;38766;53.194;5.532;2022-08-11T13:02:34;31.10;65.80
51557;DHT22;38766;53.194;5.532;2022-08-11T13:05:19;31.10;65.80
51557;DHT22;38766;53.194;5.532;2022-08-11T13:07:47;31.10;66.00
51557;DHT22;38766;53.194;5.532;2022-08-11T13:10:15;31.00;65.80
51557;DHT22;38766;53.194;5.532;2022-08-11T13:13:05;31.10;66.00
51557;DHT22;38766;53.194;5.532;2022-08-11T13:15:32;31.00;65.40
51557;DHT22;38766;53.194;5.532;2022-08-11T13:17:58;31.00;65.10
51557;DHT22;38766;53.194;5.532;2022-08-11T13:20:25;31.00;64.70
51557;DHT22;38766;53.194;5.532;2022-08-11T13:22:56;31.00;64.50
51557;DHT22;38766;53.194;5.532;2022-08-11T13:25:24;30.90;64.40
51557;DHT22;38766;53.194;5.532;2022-08-11T13:27:53;30.90;64.30
51557;DHT22;38766;53.194;5.532;2022-08-11T13:30:23;30.90;64.20
51557;DHT22;38766;53.194;5.532;2022-08-11T13:33:08;30.90;64.40
51557;DHT22;38766;53.194;5.532;2022-08-11T13:35:35;30.80;64.30
51557;DHT22;38766;53.194;5.532;2022-08-11T13:38:02;30.80;65.20
51557;DHT22;38766;53.194;5.532;2022-08-11T13:40:30;30.80;64.90
51557;DHT22;38766;53.194;5.532;2022-08-11T13:42:56;30.80;64.90
51557;DHT22;38766;53.194;5.532;2022-08-11T13:45:24;30.80;64.60
51557;DHT22;38766;53.194;5.532;2022-08-11T13:47:56;30.80;64.80
51557;DHT22;38766;53.194;5.532;2022-08-11T13:50:24;30.80;64.50
51557;DHT22;38766;53.194;5.532;2022-08-11T13:53:11;30.80;64.70
51557;DHT22;38766;53.194;5.532;2022-08-11T13:55:41;30.80;64.50
51557;DHT22;38766;53.194;5.532;2022-08-11T13:58:09;30.80;64.40
51557;DHT22;38766;53.194;5.532;2022-08-11T14:00:37;30.70;64.20
51557;DHT22;38766;53.194;5.532;2022-08-11T14:03:05;30.70;64.40
51557;DHT22;38766;53.194;5.532;2022-08-11T14:05:41;30.70;64.80
51557;DHT22;38766;53.194;5.532;2022-08-11T14:08:11;30.70;64.40
51557;DHT22;38766;53.194;5.532;2022-08-11T14:10:39;30.70;64.70
51557;DHT22;38766;53.194;5.532;2022-08-11T14:13:12;30.60;64.60
51557;DHT22;38766;53.194;5.532;2022-08-11T14:16:10;30.70;64.80
51557;DHT22;38766;53.194;5.532;2022-08-11T14:18:43;30.60;64.50
51557;DHT22;38766;53.194;5.532;2022-08-11T14:21:13;30.50;64.30
51557;DHT22;38766;53.194;5.532;2022-08-11T14:23:59;30.50;63.80
51557;DHT22;38766;53.194;5.532;2022-08-11T14:26:26;30.40;63.60
51557;DHT22;38766;53.194;5.532;2022-08-11T14:29:10;30.50;63.30
51557;DHT22;38766;53.194;5.532;2022-08-11T14:31:42;30.50;62.70
51557;DHT22;38766;53.194;5.532;2022-08-11T14:34:09;30.40;62.60
51557;DHT22;38766;53.194;5.532;2022-08-11T14:36:40;30.40;62.30
51557;DHT22;38766;53.194;5.532;2022-08-11T14:39:09;30.40;62.00
51557;DHT22;38766;53.194;5.532;2022-08-11T14:41:42;30.40;62.10
51557;DHT22;38766;53.194;5.532;2022-08-11T14:44:27;30.40;62.00
51557;DHT22;38766;53.194;5.532;2022-08-11T14:47:12;30.30;61.40
51557;DHT22;38766;53.194;5.532;2022-08-11T14:49:42;30.30;61.40
51557;DHT22;38766;53.194;5.532;2022-08-11T14:52:11;30.30;61.30
51557;DHT22;38766;53.194;5.532;2022-08-11T14:54:46;30.20;61.40
51557;DHT22;38766;53.194;5.532;2022-08-11T14:57:31;30.20;61.60
51557;DHT22;38766;53.194;5.532;2022-08-11T15:00:00;30.10;61.80
51557;DHT22;38766;53.194;5.532;2022-08-11T15:02:29;30.10;62.00
51557;DHT22;38766;53.194;5.532;2022-08-11T15:05:13;30.00;61.80
51557;DHT22;38766;53.194;5.532;2022-08-11T15:07:39;30.00;61.90
51557;DHT22;38766;53.194;5.532;2022-08-11T15:10:07;30.00;62.00
51557;DHT22;38766;53.194;5.532;2022-08-11T15:12:34;30.00;62.20
51557;DHT22;38766;53.194;5.532;2022-08-11T15:15:05;29.90;62.30
51557;DHT22;38766;53.194;5.532;2022-08-11T15:17:56;29.90;62.00
51557;DHT22;38766;53.194;5.532;2022-08-11T15:20:23;29.90;62.40
51557;DHT22;38766;53.194;5.532;2022-08-11T15:23:08;29.90;62.40
51557;DHT22;38766;53.194;5.532;2022-08-11T15:25:58;29.90;62.60
51557;DHT22;38766;53.194;5.532;2022-08-11T15:28:27;29.80;62.60
51557;DHT22;38766;53.194;5.532;2022-08-11T15:31:14;29.80;63.00
51557;DHT22;38766;53.194;5.532;2022-08-11T15:34:02;29.80;63.10
51557;DHT22;38766;53.194;5.532;2022-08-11T15:36:47;29.80;62.80
51557;DHT22;38766;53.194;5.532;2022-08-11T15:39:44;29.70;62.90
51557;DHT22;38766;53.194;5.532;2022-08-11T15:42:29;29.70;62.60
51557;DHT22;38766;53.194;5.532;2022-08-11T15:45:16;29.60;62.60
51557;DHT22;38766;53.194;5.532;2022-08-11T15:48:11;29.50;61.90
51557;DHT22;38766;53.194;5.532;2022-08-11T15:50:40;29.50;61.90
51557;DHT22;38766;53.194;5.532;2022-08-11T15:55:45;29.30;61.70
51557;DHT22;38766;53.194;5.532;2022-08-11T15:58:12;29.30;62.00
51557;DHT22;38766;53.194;5.532;2022-08-11T16:00:58;29.30;61.70
51557;DHT22;38766;53.194;5.532;2022-08-11T16:04:08;29.20;61.70
51557;DHT22;38766;53.194;5.532;2022-08-11T16:07:00;29.20;61.90
51557;DHT22;38766;53.194;5.532;2022-08-11T16:09:37;29.20;62.40
51557;DHT22;38766;53.194;5.532;2022-08-11T16:12:10;29.10;62.50
51557;DHT22;38766;53.194;5.532;2022-08-11T16:14:40;29.00;62.40
51557;DHT22;38766;53.194;5.532;2022-08-11T16:17:27;29.00;62.40
51557;DHT22;38766;53.194;5.532;2022-08-11T16:19:56;29.00;62.80
51557;DHT22;38766;53.194;5.532;2022-08-11T16:22:26;28.90;62.70
51557;DHT22;38766;53.194;5.532;2022-08-11T16:25:11;28.90;62.80
51557;DHT22;38766;53.194;5.532;2022-08-11T16:27:41;28.80;62.80
51557;DHT22;38766;53.194;5.532;2022-08-11T16:30:09;28.80;63.30
51557;DHT22;38766;53.194;5.532;2022-08-11T16:32:38;28.70;63.90
51557;DHT22;38766;53.194;5.532;2022-08-11T16:35:08;28.70;64.40
51557;DHT22;38766;53.194;5.532;2022-08-11T16:37:54;28.70;63.80
51557;DHT22;38766;53.194;5.532;2022-08-11T16:40:40;28.60;63.80
51557;DHT22;38766;53.194;5.532;2022-08-11T16:43:09;28.50;63.90
51557;DHT22;38766;53.194;5.532;2022-08-11T16:45:55;28.50;63.60
51557;DHT22;38766;53.194;5.532;2022-08-11T16:48:41;28.40;63.30
51557;DHT22;38766;53.194;5.532;2022-08-11T16:51:10;28.40;63.40
51557;DHT22;38766;53.194;5.532;2022-08-11T16:53:36;28.40;63.60
51557;DHT22;38766;53.194;5.532;2022-08-11T16:56:05;28.30;63.60
51557;DHT22;38766;53.194;5.532;2022-08-11T16:58:33;28.30;63.90
51557;DHT22;38766;53.194;5.532;2022-08-11T17:01:21;28.20;64.10
51557;DHT22;38766;53.194;5.532;2022-08-11T17:03:55;28.10;64.70
51557;DHT22;38766;53.194;5.532;2022-08-11T17:06:43;28.10;65.10
51557;DHT22;38766;53.194;5.532;2022-08-11T17:09:31;28.00;65.20
51557;DHT22;38766;53.194;5.532;2022-08-11T17:12:19;28.00;65.30
51557;DHT22;38766;53.194;5.532;2022-08-11T17:15:08;28.00;65.50
51557;DHT22;38766;53.194;5.532;2022-08-11T17:17:57;27.90;66.00
51557;DHT22;38766;53.194;5.532;2022-08-11T17:20:24;27.90;66.60
51557;DHT22;38766;53.194;5.532;2022-08-11T17:22:52;27.80;66.90
51557;DHT22;38766;53.194;5.532;2022-08-11T17:25:38;27.80;67.20
51557;DHT22;38766;53.194;5.532;2022-08-11T17:28:04;27.80;67.10
51557;DHT22;38766;53.194;5.532;2022-08-11T17:30:31;27.70;67.40
51557;DHT22;38766;53.194;5.532;2022-08-11T17:33:16;27.70;67.40
51557;DHT22;38766;53.194;5.532;2022-08-11T17:36:02;27.60;66.90
51557;DHT22;38766;53.194;5.532;2022-08-11T17:38:28;27.60;66.30
51557;DHT22;38766;53.194;5.532;2022-08-11T17:40:58;27.50;65.70
51557;DHT22;38766;53.194;5.532;2022-08-11T17:43:44;27.50;65.20
51557;DHT22;38766;53.194;5.532;2022-08-11T17:46:29;27.40;65.00
51557;DHT22;38766;53.194;5.532;2022-08-11T17:49:14;27.30;64.70
51557;DHT22;38766;53.194;5.532;2022-08-11T17:51:42;27.20;64.60
51557;DHT22;38766;53.194;5.532;2022-08-11T17:54:29;27.20;64.80
51557;DHT22;38766;53.194;5.532;2022-08-11T17:57:14;27.10;65.30
51557;DHT22;38766;53.194;5.532;2022-08-11T18:00:00;27.10;65.90
51557;DHT22;38766;53.194;5.532;2022-08-11T18:05:11;27.00;67.00
51557;DHT22;38766;53.194;5.532;2022-08-11T18:07:41;26.90;67.30
51557;DHT22;38766;53.194;5.532;2022-08-11T18:10:27;26.90;67.80
51557;DHT22;38766;53.194;5.532;2022-08-11T18:13:13;26.80;68.20
51557;DHT22;38766;53.194;5.532;2022-08-11T18:15:57;26.70;68.80
51557;DHT22;38766;53.194;5.532;2022-08-11T18:18:42;26.70;69.30
51557;DHT22;38766;53.194;5.532;2022-08-11T18:21:26;26.60;69.60
51557;DHT22;38766;53.194;5.532;2022-08-11T18:24:12;26.50;70.20
51557;DHT22;38766;53.194;5.532;2022-08-11T18:26:59;26.40;69.80
51557;DHT22;38766;53.194;5.532;2022-08-11T18:29:44;26.40;70.10
51557;DHT22;38766;53.194;5.532;2022-08-11T18:32:33;26.30;70.30
51557;DHT22;38766;53.194;5.532;2022-08-11T18:35:19;26.20;70.50
51557;DHT22;38766;53.194;5.532;2022-08-11T18:38:08;26.10;70.60
51557;DHT22;38766;53.194;5.532;2022-08-11T18:40:53;26.10;70.90
51557;DHT22;38766;53.194;5.532;2022-08-11T18:43:42;26.00;71.10
51557;DHT22;38766;53.194;5.532;2022-08-11T18:46:32;25.90;71.30
51557;DHT22;38766;53.194;5.532;2022-08-11T18:49:19;25.90;71.30
51557;DHT22;38766;53.194;5.532;2022-08-11T18:52:05;25.80;71.40
51557;DHT22;38766;53.194;5.532;2022-08-11T18:54:51;25.70;71.50
51557;DHT22;38766;53.194;5.532;2022-08-11T18:57:38;25.70;71.80
51557;DHT22;38766;53.194;5.532;2022-08-11T19:00:25;25.60;72.20
51557;DHT22;38766;53.194;5.532;2022-08-11T19:03:14;25.60;72.50
51557;DHT22;38766;53.194;5.532;2022-08-11T19:06:03;25.50;72.80
51557;DHT22;38766;53.194;5.532;2022-08-11T19:08:52;25.40;73.00
51557;DHT22;38766;53.194;5.532;2022-08-11T19:11:37;25.40;73.40
51557;DHT22;38766;53.194;5.532;2022-08-11T19:14:23;25.30;73.50
51557;DHT22;38766;53.194;5.532;2022-08-11T19:17:08;25.20;73.70
51557;DHT22;38766;53.194;5.532;2022-08-11T19:19:55;25.20;74.10
51557;DHT22;38766;53.194;5.532;2022-08-11T19:22:40;25.10;74.90
51557;DHT22;38766;53.194;5.532;2022-08-11T19:25:26;25.00;74.70
51557;DHT22;38766;53.194;5.532;2022-08-11T19:28:13;24.90;75.00
51557;DHT22;38766;53.194;5.532;2022-08-11T19:30:58;24.90;75.30